sensor_id;sensor_type;location;lat;lon;timestamp;P1;durP1;ratioP1;P2;durP2;ratioP2
19814;SDS011;10067;53.092;8.800;2023-09-30T00:00:58;25.17;;;5.95;;
19814;SDS011;10067;53.092;8.800;2023-09-30T00:03:24;22.45;;;6.60;;
19814;SDS011;10067;53.092;8.800;2023-09-30T00:05:51;30.08;;;6.90;;
19814;SDS011;10067;53.092;8.800;2023-09-30T00:08:17;19.85;;;5.50;;
19814;SDS011;10067;53.092;8.800;2023-09-30T00:10:44;23.27;;;5.85;;
19814;SDS011;10067;53.092;8.800;2023-09-30T00:13:11;24.98;;;6.60;;
19814;SDS011;10067;53.092;8.800;2023-09-30T00:15:38;26.02;;;5.95;;
19814;SDS011;10067;53.092;8.800;2023-09-30T00:18:06;25.55;;;6.22;;
19814;SDS011;10067;53.092;8.800;2023-09-30T00:20:32;23.67;;;6.60;;
19814;SDS011;10067;53.092;8.800;2023-09-30T00:22:59;24.50;;;6.22;;
19814;SDS011;10067;53.092;8.800;2023-09-30T00:25:25;24.20;;;5.47;;
19814;SDS011;10067;53.092;8.800;2023-09-30T00:27:53;25.55;;;6.43;;
19814;SDS011;10067;53.092;8.800;2023-09-30T00:30:19;23.13;;;6.25;;
19814;SDS011;10067;53.092;8.800;2023-09-30T00:32:48;22.83;;;6.28;;
19814;SDS011;10067;53.092;8.800;2023-09-30T00:35:14;18.27;;;5.70;;
19814;SDS011;10067;53.092;8.800;2023-09-30T00:37:41;20.10;;;5.80;;
19814;SDS011;10067;53.092;8.800;2023-09-30T00:40:08;25.40;;;5.90;;
19814;SDS011;10067;53.092;8.800;2023-09-30T00:42:37;22.52;;;5.55;;
19814;SDS011;10067;53.092;8.800;2023-09-30T00:45:03;24.48;;;6.25;;
19814;SDS011;10067;53.092;8.800;2023-09-30T00:47:30;21.52;;;5.90;;
19814;SDS011;10067;53.092;8.800;2023-09-30T00:49:59;22.58;;;5.90;;
19814;SDS011;10067;53.092;8.800;2023-09-30T00:52:26;26.80;;;5.65;;
19814;SDS011;10067;53.092;8.800;2023-09-30T00:54:53;20.60;;;6.28;;
19814;SDS011;10067;53.092;8.800;2023-09-30T00:57:20;18.48;;;5.40;;
19814;SDS011;10067;53.092;8.800;2023-09-30T00:59:47;23.02;;;5.85;;
19814;SDS011;10067;53.092;8.800;2023-09-30T01:02:13;18.48;;;5.53;;
19814;SDS011;10067;53.092;8.800;2023-09-30T01:04:40;23.02;;;5.90;;
19814;SDS011;10067;53.092;8.800;2023-09-30T01:07:08;23.23;;;5.53;;
19814;SDS011;10067;53.092;8.800;2023-09-30T01:09:35;18.58;;;5.68;;
19814;SDS011;10067;53.092;8.800;2023-09-30T01:12:02;24.98;;;5.70;;
19814;SDS011;10067;53.092;8.800;2023-09-30T01:14:30;27.70;;;6.10;;
19814;SDS011;10067;53.092;8.800;2023-09-30T01:16:57;26.70;;;6.05;;
19814;SDS011;10067;53.092;8.800;2023-09-30T01:19:24;24.80;;;6.82;;
19814;SDS011;10067;53.092;8.800;2023-09-30T01:21:53;25.13;;;6.80;;
19814;SDS011;10067;53.092;8.800;2023-09-30T01:24:21;26.55;;;6.68;;
19814;SDS011;10067;53.092;8.800;2023-09-30T01:26:47;23.77;;;6.07;;
19814;SDS011;10067;53.092;8.800;2023-09-30T01:29:14;22.50;;;6.65;;
19814;SDS011;10067;53.092;8.800;2023-09-30T01:31:42;27.08;;;6.93;;
19814;SDS011;10067;53.092;8.800;2023-09-30T01:34:08;28.15;;;6.68;;
19814;SDS011;10067;53.092;8.800;2023-09-30T01:36:36;32.35;;;7.07;;
19814;SDS011;10067;53.092;8.800;2023-09-30T01:39:03;26.15;;;6.35;;
19814;SDS011;10067;53.092;8.800;2023-09-30T01:41:32;27.15;;;6.65;;
19814;SDS011;10067;53.092;8.800;2023-09-30T01:43:58;27.10;;;6.78;;
19814;SDS011;10067;53.092;8.800;2023-09-30T01:46:25;25.40;;;6.57;;
19814;SDS011;10067;53.092;8.800;2023-09-30T01:48:51;26.90;;;6.68;;
19814;SDS011;10067;53.092;8.800;2023-09-30T01:51:17;27.00;;;6.35;;
19814;SDS011;10067;53.092;8.800;2023-09-30T01:53:44;26.15;;;7.00;;
19814;SDS011;10067;53.092;8.800;2023-09-30T01:56:11;25.65;;;6.00;;
19814;SDS011;10067;53.092;8.800;2023-09-30T01:58:38;27.95;;;6.80;;
19814;SDS011;10067;53.092;8.800;2023-09-30T02:01:04;26.48;;;6.97;;
19814;SDS011;10067;53.092;8.800;2023-09-30T02:03:30;20.17;;;6.28;;
19814;SDS011;10067;53.092;8.800;2023-09-30T02:05:57;26.10;;;6.47;;
19814;SDS011;10067;53.092;8.800;2023-09-30T02:08:24;25.77;;;6.05;;
19814;SDS011;10067;53.092;8.800;2023-09-30T02:10:50;20.17;;;5.65;;
19814;SDS011;10067;53.092;8.800;2023-09-30T02:13:18;24.67;;;6.97;;
19814;SDS011;10067;53.092;8.800;2023-09-30T02:15:45;26.60;;;6.60;;
19814;SDS011;10067;53.092;8.800;2023-09-30T02:18:11;20.38;;;6.13;;
19814;SDS011;10067;53.092;8.800;2023-09-30T02:20:39;18.67;;;6.25;;
19814;SDS011;10067;53.092;8.800;2023-09-30T02:23:05;29.55;;;7.57;;
19814;SDS011;10067;53.092;8.800;2023-09-30T02:25:32;20.75;;;6.25;;
19814;SDS011;10067;53.092;8.800;2023-09-30T02:27:58;30.00;;;7.75;;
19814;SDS011;10067;53.092;8.800;2023-09-30T02:30:27;27.13;;;7.15;;
19814;SDS011;10067;53.092;8.800;2023-09-30T02:32:53;26.30;;;7.30;;
19814;SDS011;10067;53.092;8.800;2023-09-30T02:35:21;25.88;;;6.93;;
19814;SDS011;10067;53.092;8.800;2023-09-30T02:37:47;21.30;;;7.22;;
19814;SDS011;10067;53.092;8.800;2023-09-30T02:40:14;31.55;;;7.57;;
19814;SDS011;10067;53.092;8.800;2023-09-30T02:42:42;21.05;;;6.88;;
19814;SDS011;10067;53.092;8.800;2023-09-30T02:45:09;27.58;;;7.25;;
19814;SDS011;10067;53.092;8.800;2023-09-30T02:47:37;25.27;;;7.32;;
19814;SDS011;10067;53.092;8.800;2023-09-30T02:50:04;23.70;;;7.25;;
19814;SDS011;10067;53.092;8.800;2023-09-30T02:52:31;28.88;;;8.50;;
19814;SDS011;10067;53.092;8.800;2023-09-30T02:54:57;24.80;;;7.47;;
19814;SDS011;10067;53.092;8.800;2023-09-30T02:57:24;25.52;;;7.07;;
19814;SDS011;10067;53.092;8.800;2023-09-30T02:59:52;23.92;;;7.07;;
19814;SDS011;10067;53.092;8.800;2023-09-30T03:02:19;20.13;;;6.03;;
19814;SDS011;10067;53.092;8.800;2023-09-30T03:04:47;21.42;;;6.55;;
19814;SDS011;10067;53.092;8.800;2023-09-30T03:07:15;24.85;;;6.88;;
19814;SDS011;10067;53.092;8.800;2023-09-30T03:09:41;25.08;;;6.95;;
19814;SDS011;10067;53.092;8.800;2023-09-30T03:12:08;32.20;;;7.30;;
19814;SDS011;10067;53.092;8.800;2023-09-30T03:14:35;23.55;;;6.60;;
19814;SDS011;10067;53.092;8.800;2023-09-30T03:17:01;20.95;;;6.05;;
19814;SDS011;10067;53.092;8.800;2023-09-30T03:19:28;27.85;;;7.20;;
19814;SDS011;10067;53.092;8.800;2023-09-30T03:21:56;24.35;;;6.72;;
19814;SDS011;10067;53.092;8.800;2023-09-30T03:24:22;25.92;;;6.97;;
19814;SDS011;10067;53.092;8.800;2023-09-30T03:26:49;25.77;;;7.53;;
19814;SDS011;10067;53.092;8.800;2023-09-30T03:29:15;26.15;;;7.32;;
19814;SDS011;10067;53.092;8.800;2023-09-30T03:31:42;29.23;;;7.32;;
19814;SDS011;10067;53.092;8.800;2023-09-30T03:34:08;22.55;;;6.80;;
19814;SDS011;10067;53.092;8.800;2023-09-30T03:36:34;24.50;;;6.88;;
19814;SDS011;10067;53.092;8.800;2023-09-30T03:39:03;22.65;;;6.80;;
19814;SDS011;10067;53.092;8.800;2023-09-30T03:41:33;31.02;;;7.88;;
19814;SDS011;10067;53.092;8.800;2023-09-30T03:44:00;29.05;;;7.63;;
19814;SDS011;10067;53.092;8.800;2023-09-30T03:46:27;23.33;;;6.18;;
19814;SDS011;10067;53.092;8.800;2023-09-30T03:48:53;30.63;;;7.72;;
19814;SDS011;10067;53.092;8.800;2023-09-30T03:51:20;25.33;;;7.22;;
19814;SDS011;10067;53.092;8.800;2023-09-30T03:53:50;24.73;;;6.95;;
19814;SDS011;10067;53.092;8.800;2023-09-30T03:56:18;22.33;;;7.18;;
19814;SDS011;10067;53.092;8.800;2023-09-30T03:58:47;25.17;;;7.40;;
19814;SDS011;10067;53.092;8.800;2023-09-30T04:01:13;30.75;;;8.40;;
19814;SDS011;10067;53.092;8.800;2023-09-30T04:03:41;26.65;;;7.22;;
19814;SDS011;10067;53.092;8.800;2023-09-30T04:06:08;25.95;;;7.28;;
19814;SDS011;10067;53.092;8.800;2023-09-30T04:08:35;29.75;;;7.68;;
19814;SDS011;10067;53.092;8.800;2023-09-30T04:11:01;24.63;;;7.55;;
19814;SDS011;10067;53.092;8.800;2023-09-30T04:13:32;20.70;;;6.68;;
19814;SDS011;10067;53.092;8.800;2023-09-30T04:16:00;25.73;;;7.72;;
19814;SDS011;10067;53.092;8.800;2023-09-30T04:18:26;35.15;;;7.70;;
19814;SDS011;10067;53.092;8.800;2023-09-30T04:20:52;26.23;;;6.95;;
19814;SDS011;10067;53.092;8.800;2023-09-30T04:23:19;23.23;;;7.43;;
19814;SDS011;10067;53.092;8.800;2023-09-30T04:25:45;25.75;;;7.13;;
19814;SDS011;10067;53.092;8.800;2023-09-30T04:28:12;24.73;;;7.72;;
19814;SDS011;10067;53.092;8.800;2023-09-30T04:30:40;24.98;;;7.18;;
19814;SDS011;10067;53.092;8.800;2023-09-30T04:33:07;21.98;;;7.15;;
19814;SDS011;10067;53.092;8.800;2023-09-30T04:35:33;26.67;;;6.68;;
19814;SDS011;10067;53.092;8.800;2023-09-30T04:38:00;23.10;;;7.32;;
19814;SDS011;10067;53.092;8.800;2023-09-30T04:40:27;22.83;;;6.88;;
19814;SDS011;10067;53.092;8.800;2023-09-30T04:42:54;23.75;;;7.10;;
19814;SDS011;10067;53.092;8.800;2023-09-30T04:45:23;24.25;;;6.93;;
19814;SDS011;10067;53.092;8.800;2023-09-30T04:47:52;21.50;;;7.28;;
19814;SDS011;10067;53.092;8.800;2023-09-30T04:50:21;23.90;;;7.13;;
19814;SDS011;10067;53.092;8.800;2023-09-30T04:52:48;21.33;;;6.53;;
19814;SDS011;10067;53.092;8.800;2023-09-30T04:55:15;23.02;;;7.25;;
19814;SDS011;10067;53.092;8.800;2023-09-30T04:57:42;22.20;;;6.97;;
19814;SDS011;10067;53.092;8.800;2023-09-30T05:00:10;23.35;;;6.53;;
19814;SDS011;10067;53.092;8.800;2023-09-30T05:02:36;26.45;;;7.10;;
19814;SDS011;10067;53.092;8.800;2023-09-30T05:05:04;27.20;;;7.93;;
19814;SDS011;10067;53.092;8.800;2023-09-30T05:07:31;24.08;;;5.80;;
19814;SDS011;10067;53.092;8.800;2023-09-30T05:09:58;22.63;;;6.43;;
19814;SDS011;10067;53.092;8.800;2023-09-30T05:12:30;24.52;;;6.80;;
19814;SDS011;10067;53.092;8.800;2023-09-30T05:14:56;24.08;;;6.68;;
19814;SDS011;10067;53.092;8.800;2023-09-30T05:17:23;19.45;;;6.22;;
19814;SDS011;10067;53.092;8.800;2023-09-30T05:19:49;22.52;;;6.30;;
19814;SDS011;10067;53.092;8.800;2023-09-30T05:22:17;22.50;;;6.38;;
19814;SDS011;10067;53.092;8.800;2023-09-30T05:24:47;23.83;;;7.03;;
19814;SDS011;10067;53.092;8.800;2023-09-30T05:27:13;23.55;;;6.13;;
19814;SDS011;10067;53.092;8.800;2023-09-30T05:29:39;23.30;;;6.65;;
19814;SDS011;10067;53.092;8.800;2023-09-30T05:32:06;17.23;;;6.50;;
19814;SDS011;10067;53.092;8.800;2023-09-30T05:34:32;22.48;;;6.18;;
19814;SDS011;10067;53.092;8.800;2023-09-30T05:36:59;17.73;;;5.95;;
19814;SDS011;10067;53.092;8.800;2023-09-30T05:39:27;23.17;;;6.78;;
19814;SDS011;10067;53.092;8.800;2023-09-30T05:41:54;26.70;;;6.68;;
19814;SDS011;10067;53.092;8.800;2023-09-30T05:44:20;26.23;;;7.35;;
19814;SDS011;10067;53.092;8.800;2023-09-30T05:46:47;17.33;;;6.07;;
19814;SDS011;10067;53.092;8.800;2023-09-30T05:49:13;17.50;;;6.30;;
19814;SDS011;10067;53.092;8.800;2023-09-30T05:51:40;24.40;;;6.72;;
19814;SDS011;10067;53.092;8.800;2023-09-30T05:54:06;19.08;;;6.50;;
19814;SDS011;10067;53.092;8.800;2023-09-30T05:56:36;22.48;;;6.35;;
19814;SDS011;10067;53.092;8.800;2023-09-30T05:59:03;25.45;;;7.22;;
19814;SDS011;10067;53.092;8.800;2023-09-30T06:01:30;20.05;;;6.13;;
19814;SDS011;10067;53.092;8.800;2023-09-30T06:03:57;21.50;;;6.72;;
19814;SDS011;10067;53.092;8.800;2023-09-30T06:06:24;19.50;;;6.68;;
19814;SDS011;10067;53.092;8.800;2023-09-30T06:08:51;20.50;;;6.97;;
19814;SDS011;10067;53.092;8.800;2023-09-30T06:11:18;21.48;;;6.63;;
19814;SDS011;10067;53.092;8.800;2023-09-30T06:13:50;23.60;;;6.93;;
19814;SDS011;10067;53.092;8.800;2023-09-30T06:16:18;26.00;;;6.32;;
19814;SDS011;10067;53.092;8.800;2023-09-30T06:18:44;23.83;;;6.03;;
19814;SDS011;10067;53.092;8.800;2023-09-30T06:21:11;26.58;;;7.22;;
19814;SDS011;10067;53.092;8.800;2023-09-30T06:23:37;24.67;;;6.70;;
19814;SDS011;10067;53.092;8.800;2023-09-30T06:26:03;33.17;;;7.28;;
19814;SDS011;10067;53.092;8.800;2023-09-30T06:28:30;21.83;;;6.45;;
19814;SDS011;10067;53.092;8.800;2023-09-30T06:30:59;21.83;;;6.55;;
19814;SDS011;10067;53.092;8.800;2023-09-30T06:33:25;31.20;;;7.55;;
19814;SDS011;10067;53.092;8.800;2023-09-30T06:35:54;26.25;;;7.32;;
19814;SDS011;10067;53.092;8.800;2023-09-30T06:38:21;30.48;;;7.20;;
19814;SDS011;10067;53.092;8.800;2023-09-30T06:40:47;28.20;;;6.82;;
19814;SDS011;10067;53.092;8.800;2023-09-30T06:43:14;22.15;;;5.95;;
19814;SDS011;10067;53.092;8.800;2023-09-30T06:45:41;30.60;;;6.82;;
19814;SDS011;10067;53.092;8.800;2023-09-30T06:48:10;19.33;;;6.50;;
19814;SDS011;10067;53.092;8.800;2023-09-30T06:50:38;19.20;;;6.90;;
19814;SDS011;10067;53.092;8.800;2023-09-30T06:53:04;22.15;;;5.82;;
19814;SDS011;10067;53.092;8.800;2023-09-30T06:55:31;21.77;;;6.80;;
19814;SDS011;10067;53.092;8.800;2023-09-30T06:57:57;21.08;;;6.40;;
19814;SDS011;10067;53.092;8.800;2023-09-30T07:00:24;22.48;;;6.47;;
19814;SDS011;10067;53.092;8.800;2023-09-30T07:02:50;21.02;;;6.63;;
19814;SDS011;10067;53.092;8.800;2023-09-30T07:05:19;23.73;;;5.75;;
19814;SDS011;10067;53.092;8.800;2023-09-30T07:07:46;20.63;;;6.80;;
19814;SDS011;10067;53.092;8.800;2023-09-30T07:10:12;21.48;;;7.00;;
19814;SDS011;10067;53.092;8.800;2023-09-30T07:12:39;22.63;;;7.03;;
19814;SDS011;10067;53.092;8.800;2023-09-30T07:15:06;20.85;;;7.35;;
19814;SDS011;10067;53.092;8.800;2023-09-30T07:17:33;16.13;;;6.30;;
19814;SDS011;10067;53.092;8.800;2023-09-30T07:19:59;21.50;;;6.38;;
19814;SDS011;10067;53.092;8.800;2023-09-30T07:22:27;18.08;;;6.20;;
19814;SDS011;10067;53.092;8.800;2023-09-30T07:24:54;23.52;;;7.05;;
19814;SDS011;10067;53.092;8.800;2023-09-30T07:27:20;23.60;;;6.70;;
19814;SDS011;10067;53.092;8.800;2023-09-30T07:29:47;25.02;;;6.10;;
19814;SDS011;10067;53.092;8.800;2023-09-30T07:32:14;21.02;;;6.40;;
19814;SDS011;10067;53.092;8.800;2023-09-30T07:34:40;22.10;;;6.28;;
19814;SDS011;10067;53.092;8.800;2023-09-30T07:37:07;30.85;;;7.47;;
19814;SDS011;10067;53.092;8.800;2023-09-30T07:39:34;20.52;;;6.30;;
19814;SDS011;10067;53.092;8.800;2023-09-30T07:42:01;22.98;;;6.50;;
19814;SDS011;10067;53.092;8.800;2023-09-30T07:44:27;16.08;;;5.90;;
19814;SDS011;10067;53.092;8.800;2023-09-30T07:46:54;19.75;;;6.07;;
19814;SDS011;10067;53.092;8.800;2023-09-30T07:49:20;16.77;;;6.05;;
19814;SDS011;10067;53.092;8.800;2023-09-30T07:51:46;19.95;;;5.50;;
19814;SDS011;10067;53.092;8.800;2023-09-30T07:54:13;20.42;;;6.00;;
19814;SDS011;10067;53.092;8.800;2023-09-30T07:56:41;17.60;;;5.45;;
19814;SDS011;10067;53.092;8.800;2023-09-30T07:59:07;20.50;;;5.97;;
19814;SDS011;10067;53.092;8.800;2023-09-30T08:01:35;21.65;;;5.75;;
19814;SDS011;10067;53.092;8.800;2023-09-30T08:04:02;22.25;;;5.57;;
19814;SDS011;10067;53.092;8.800;2023-09-30T08:06:28;17.17;;;5.13;;
19814;SDS011;10067;53.092;8.800;2023-09-30T08:08:55;20.00;;;5.75;;
19814;SDS011;10067;53.092;8.800;2023-09-30T08:11:21;19.42;;;5.55;;
19814;SDS011;10067;53.092;8.800;2023-09-30T08:13:51;20.77;;;5.32;;
19814;SDS011;10067;53.092;8.800;2023-09-30T08:16:18;21.95;;;5.43;;
19814;SDS011;10067;53.092;8.800;2023-09-30T08:18:44;14.45;;;4.65;;
19814;SDS011;10067;53.092;8.800;2023-09-30T08:21:11;17.17;;;5.50;;
19814;SDS011;10067;53.092;8.800;2023-09-30T08:23:37;15.02;;;5.55;;
19814;SDS011;10067;53.092;8.800;2023-09-30T08:26:04;16.95;;;5.15;;
19814;SDS011;10067;53.092;8.800;2023-09-30T08:28:31;19.30;;;5.93;;
19814;SDS011;10067;53.092;8.800;2023-09-30T08:31:02;18.17;;;6.15;;
19814;SDS011;10067;53.092;8.800;2023-09-30T08:33:29;13.45;;;4.63;;
19814;SDS011;10067;53.092;8.800;2023-09-30T08:35:56;22.00;;;6.38;;
19814;SDS011;10067;53.092;8.800;2023-09-30T08:38:23;19.65;;;4.93;;
19814;SDS011;10067;53.092;8.800;2023-09-30T08:40:49;16.63;;;4.45;;
19814;SDS011;10067;53.092;8.800;2023-09-30T08:43:18;15.95;;;4.72;;
19814;SDS011;10067;53.092;8.800;2023-09-30T08:45:45;16.55;;;5.03;;
19814;SDS011;10067;53.092;8.800;2023-09-30T08:48:14;19.08;;;4.72;;
19814;SDS011;10067;53.092;8.800;2023-09-30T08:50:41;18.65;;;4.82;;
19814;SDS011;10067;53.092;8.800;2023-09-30T08:53:08;12.15;;;4.55;;
19814;SDS011;10067;53.092;8.800;2023-09-30T08:55:36;14.93;;;4.40;;
19814;SDS011;10067;53.092;8.800;2023-09-30T08:58:03;19.15;;;5.03;;
19814;SDS011;10067;53.092;8.800;2023-09-30T09:00:30;13.93;;;4.18;;
19814;SDS011;10067;53.092;8.800;2023-09-30T09:02:56;20.10;;;4.93;;
19814;SDS011;10067;53.092;8.800;2023-09-30T09:05:24;13.02;;;4.57;;
19814;SDS011;10067;53.092;8.800;2023-09-30T09:07:51;16.40;;;4.20;;
19814;SDS011;10067;53.092;8.800;2023-09-30T09:10:17;12.55;;;3.70;;
19814;SDS011;10067;53.092;8.800;2023-09-30T09:12:44;11.98;;;4.38;;
19814;SDS011;10067;53.092;8.800;2023-09-30T09:15:20;13.32;;;3.42;;
19814;SDS011;10067;53.092;8.800;2023-09-30T09:17:47;16.10;;;4.53;;
19814;SDS011;10067;53.092;8.800;2023-09-30T09:20:16;16.77;;;3.83;;
19814;SDS011;10067;53.092;8.800;2023-09-30T09:22:47;11.02;;;3.45;;
19814;SDS011;10067;53.092;8.800;2023-09-30T09:25:15;13.98;;;3.80;;
19814;SDS011;10067;53.092;8.800;2023-09-30T09:27:41;15.27;;;4.05;;
19814;SDS011;10067;53.092;8.800;2023-09-30T09:30:15;16.48;;;3.72;;
19814;SDS011;10067;53.092;8.800;2023-09-30T09:32:51;12.55;;;3.28;;
19814;SDS011;10067;53.092;8.800;2023-09-30T09:35:19;15.38;;;4.15;;
19814;SDS011;10067;53.092;8.800;2023-09-30T09:37:55;15.75;;;3.78;;
19814;SDS011;10067;53.092;8.800;2023-09-30T09:40:22;15.05;;;4.30;;
19814;SDS011;10067;53.092;8.800;2023-09-30T09:42:49;10.50;;;3.33;;
19814;SDS011;10067;53.092;8.800;2023-09-30T09:45:19;14.10;;;3.70;;
19814;SDS011;10067;53.092;8.800;2023-09-30T09:47:46;12.80;;;3.47;;
19814;SDS011;10067;53.092;8.800;2023-09-30T09:50:13;11.57;;;2.92;;
19814;SDS011;10067;53.092;8.800;2023-09-30T09:52:40;11.63;;;2.95;;
19814;SDS011;10067;53.092;8.800;2023-09-30T09:55:09;11.90;;;3.35;;
19814;SDS011;10067;53.092;8.800;2023-09-30T09:57:36;11.30;;;3.28;;
19814;SDS011;10067;53.092;8.800;2023-09-30T10:00:03;9.55;;;3.38;;
19814;SDS011;10067;53.092;8.800;2023-09-30T10:02:34;13.77;;;3.15;;
19814;SDS011;10067;53.092;8.800;2023-09-30T10:05:01;16.88;;;3.60;;
19814;SDS011;10067;53.092;8.800;2023-09-30T10:07:29;13.15;;;2.83;;
19814;SDS011;10067;53.092;8.800;2023-09-30T10:09:58;9.77;;;2.80;;
19814;SDS011;10067;53.092;8.800;2023-09-30T10:12:26;9.93;;;2.70;;
19814;SDS011;10067;53.092;8.800;2023-09-30T10:14:53;10.70;;;3.22;;
19814;SDS011;10067;53.092;8.800;2023-09-30T10:17:19;14.73;;;3.55;;
19814;SDS011;10067;53.092;8.800;2023-09-30T10:22:30;13.43;;;5.28;;
19814;SDS011;10067;53.092;8.800;2023-09-30T10:24:56;11.77;;;2.65;;
19814;SDS011;10067;53.092;8.800;2023-09-30T10:27:32;10.88;;;3.03;;
19814;SDS011;10067;53.092;8.800;2023-09-30T10:30:08;9.95;;;2.60;;
19814;SDS011;10067;53.092;8.800;2023-09-30T10:40:46;9.02;;;2.38;;
19814;SDS011;10067;53.092;8.800;2023-09-30T10:45:55;8.55;;;2.45;;
19814;SDS011;10067;53.092;8.800;2023-09-30T10:48:34;6.55;;;2.22;;
19814;SDS011;10067;53.092;8.800;2023-09-30T10:51:01;8.63;;;2.33;;
19814;SDS011;10067;53.092;8.800;2023-09-30T10:53:29;11.43;;;2.67;;
19814;SDS011;10067;53.092;8.800;2023-09-30T10:55:56;9.80;;;2.15;;
19814;SDS011;10067;53.092;8.800;2023-09-30T10:58:29;7.45;;;2.15;;
19814;SDS011;10067;53.092;8.800;2023-09-30T11:01:06;13.25;;;3.03;;
19814;SDS011;10067;53.092;8.800;2023-09-30T11:03:32;11.48;;;2.90;;
19814;SDS011;10067;53.092;8.800;2023-09-30T11:05:59;8.05;;;1.75;;
19814;SDS011;10067;53.092;8.800;2023-09-30T11:08:27;7.65;;;2.25;;
19814;SDS011;10067;53.092;8.800;2023-09-30T11:10:54;10.68;;;2.20;;
19814;SDS011;10067;53.092;8.800;2023-09-30T11:13:21;10.45;;;2.10;;
19814;SDS011;10067;53.092;8.800;2023-09-30T11:15:48;8.68;;;2.70;;
19814;SDS011;10067;53.092;8.800;2023-09-30T11:18:26;8.45;;;1.92;;
19814;SDS011;10067;53.092;8.800;2023-09-30T11:21:02;6.63;;;2.00;;
19814;SDS011;10067;53.092;8.800;2023-09-30T11:23:29;8.48;;;1.83;;
19814;SDS011;10067;53.092;8.800;2023-09-30T11:25:56;9.05;;;2.50;;
19814;SDS011;10067;53.092;8.800;2023-09-30T11:28:22;6.28;;;1.70;;
19814;SDS011;10067;53.092;8.800;2023-09-30T11:30:57;9.32;;;2.30;;
19814;SDS011;10067;53.092;8.800;2023-09-30T11:33:24;6.38;;;1.85;;
19814;SDS011;10067;53.092;8.800;2023-09-30T11:35:59;10.02;;;2.47;;
19814;SDS011;10067;53.092;8.800;2023-09-30T11:38:26;8.00;;;2.15;;
19814;SDS011;10067;53.092;8.800;2023-09-30T11:40:59;6.15;;;1.75;;
19814;SDS011;10067;53.092;8.800;2023-09-30T11:43:27;11.02;;;3.08;;
19814;SDS011;10067;53.092;8.800;2023-09-30T11:46:03;6.82;;;1.92;;
19814;SDS011;10067;53.092;8.800;2023-09-30T11:48:30;8.80;;;1.83;;
19814;SDS011;10067;53.092;8.800;2023-09-30T11:50:58;9.30;;;2.13;;
19814;SDS011;10067;53.092;8.800;2023-09-30T11:53:26;9.50;;;1.83;;
19814;SDS011;10067;53.092;8.800;2023-09-30T11:55:55;8.32;;;1.83;;
19814;SDS011;10067;53.092;8.800;2023-09-30T11:58:23;7.18;;;1.50;;
19814;SDS011;10067;53.092;8.800;2023-09-30T12:00:52;8.48;;;2.35;;
19814;SDS011;10067;53.092;8.800;2023-09-30T12:03:19;8.43;;;2.00;;
19814;SDS011;10067;53.092;8.800;2023-09-30T12:05:46;7.65;;;1.98;;
19814;SDS011;10067;53.092;8.800;2023-09-30T12:08:13;9.05;;;2.20;;
19814;SDS011;10067;53.092;8.800;2023-09-30T12:10:41;8.20;;;1.92;;
19814;SDS011;10067;53.092;8.800;2023-09-30T12:13:07;8.38;;;2.10;;
19814;SDS011;10067;53.092;8.800;2023-09-30T12:15:37;6.57;;;1.60;;
19814;SDS011;10067;53.092;8.800;2023-09-30T12:18:03;10.40;;;2.72;;
19814;SDS011;10067;53.092;8.800;2023-09-30T12:20:30;7.18;;;2.28;;
19814;SDS011;10067;53.092;8.800;2023-09-30T12:22:56;6.13;;;1.58;;
19814;SDS011;10067;53.092;8.800;2023-09-30T12:25:22;7.07;;;1.95;;
19814;SDS011;10067;53.092;8.800;2023-09-30T12:27:51;11.77;;;2.40;;
19814;SDS011;10067;53.092;8.800;2023-09-30T12:30:20;9.23;;;2.35;;
19814;SDS011;10067;53.092;8.800;2023-09-30T12:32:46;5.97;;;1.85;;
19814;SDS011;10067;53.092;8.800;2023-09-30T12:35:13;8.18;;;1.88;;
19814;SDS011;10067;53.092;8.800;2023-09-30T12:37:39;8.82;;;2.30;;
19814;SDS011;10067;53.092;8.800;2023-09-30T12:40:08;7.60;;;2.17;;
19814;SDS011;10067;53.092;8.800;2023-09-30T12:42:36;9.50;;;2.10;;
19814;SDS011;10067;53.092;8.800;2023-09-30T12:45:05;9.77;;;2.97;;
19814;SDS011;10067;53.092;8.800;2023-09-30T12:47:31;7.35;;;2.28;;
19814;SDS011;10067;53.092;8.800;2023-09-30T12:49:58;11.02;;;3.00;;
19814;SDS011;10067;53.092;8.800;2023-09-30T12:52:24;7.78;;;2.03;;
19814;SDS011;10067;53.092;8.800;2023-09-30T12:54:50;7.45;;;1.80;;
19814;SDS011;10067;53.092;8.800;2023-09-30T12:57:17;8.00;;;2.10;;
19814;SDS011;10067;53.092;8.800;2023-09-30T12:59:44;7.97;;;2.55;;
19814;SDS011;10067;53.092;8.800;2023-09-30T13:02:12;6.30;;;2.28;;
19814;SDS011;10067;53.092;8.800;2023-09-30T13:04:39;4.47;;;1.63;;
19814;SDS011;10067;53.092;8.800;2023-09-30T13:07:08;6.03;;;1.77;;
19814;SDS011;10067;53.092;8.800;2023-09-30T13:09:35;9.38;;;2.03;;
19814;SDS011;10067;53.092;8.800;2023-09-30T13:12:01;6.80;;;2.08;;
19814;SDS011;10067;53.092;8.800;2023-09-30T13:14:28;7.10;;;1.90;;
19814;SDS011;10067;53.092;8.800;2023-09-30T13:16:54;10.98;;;2.15;;
19814;SDS011;10067;53.092;8.800;2023-09-30T13:19:22;9.82;;;2.15;;
19814;SDS011;10067;53.092;8.800;2023-09-30T13:21:49;4.65;;;1.70;;
19814;SDS011;10067;53.092;8.800;2023-09-30T13:24:18;8.75;;;2.38;;
19814;SDS011;10067;53.092;8.800;2023-09-30T13:26:44;6.65;;;1.83;;
19814;SDS011;10067;53.092;8.800;2023-09-30T13:29:11;7.82;;;1.73;;
19814;SDS011;10067;53.092;8.800;2023-09-30T13:31:38;6.72;;;1.48;;
19814;SDS011;10067;53.092;8.800;2023-09-30T13:34:04;8.25;;;1.92;;
19814;SDS011;10067;53.092;8.800;2023-09-30T13:36:32;6.50;;;2.13;;
19814;SDS011;10067;53.092;8.800;2023-09-30T13:38:59;6.00;;;1.75;;
19814;SDS011;10067;53.092;8.800;2023-09-30T13:41:26;7.57;;;2.15;;
19814;SDS011;10067;53.092;8.800;2023-09-30T13:43:52;5.35;;;1.48;;
19814;SDS011;10067;53.092;8.800;2023-09-30T13:46:19;6.30;;;1.70;;
19814;SDS011;10067;53.092;8.800;2023-09-30T13:48:49;8.38;;;2.03;;
19814;SDS011;10067;53.092;8.800;2023-09-30T13:51:17;7.88;;;1.88;;
19814;SDS011;10067;53.092;8.800;2023-09-30T13:53:45;7.60;;;2.28;;
19814;SDS011;10067;53.092;8.800;2023-09-30T13:56:11;14.27;;;2.88;;
19814;SDS011;10067;53.092;8.800;2023-09-30T13:58:38;9.00;;;2.35;;
19814;SDS011;10067;53.092;8.800;2023-09-30T14:01:05;4.40;;;1.38;;
19814;SDS011;10067;53.092;8.800;2023-09-30T14:03:32;8.02;;;1.77;;
19814;SDS011;10067;53.092;8.800;2023-09-30T14:05:59;6.88;;;2.03;;
19814;SDS011;10067;53.092;8.800;2023-09-30T14:08:26;8.43;;;1.98;;
19814;SDS011;10067;53.092;8.800;2023-09-30T14:10:54;14.02;;;3.00;;
19814;SDS011;10067;53.092;8.800;2023-09-30T14:13:20;7.68;;;2.17;;
19814;SDS011;10067;53.092;8.800;2023-09-30T14:15:48;10.15;;;2.65;;
19814;SDS011;10067;53.092;8.800;2023-09-30T14:18:14;7.70;;;2.28;;
19814;SDS011;10067;53.092;8.800;2023-09-30T14:20:41;11.70;;;5.65;;
19814;SDS011;10067;53.092;8.800;2023-09-30T14:23:07;11.75;;;3.33;;
19814;SDS011;10067;53.092;8.800;2023-09-30T14:25:34;10.63;;;4.55;;
19814;SDS011;10067;53.092;8.800;2023-09-30T14:28:02;10.32;;;3.30;;
19814;SDS011;10067;53.092;8.800;2023-09-30T14:30:29;14.25;;;5.57;;
19814;SDS011;10067;53.092;8.800;2023-09-30T14:32:56;9.13;;;2.67;;
19814;SDS011;10067;53.092;8.800;2023-09-30T14:35:29;8.15;;;2.20;;
19814;SDS011;10067;53.092;8.800;2023-09-30T14:37:58;9.50;;;2.25;;
19814;SDS011;10067;53.092;8.800;2023-09-30T14:40:24;13.75;;;2.40;;
19814;SDS011;10067;53.092;8.800;2023-09-30T14:42:51;8.23;;;2.08;;
19814;SDS011;10067;53.092;8.800;2023-09-30T14:45:19;7.18;;;2.17;;
19814;SDS011;10067;53.092;8.800;2023-09-30T14:47:48;12.60;;;2.50;;
19814;SDS011;10067;53.092;8.800;2023-09-30T14:50:15;7.80;;;2.20;;
19814;SDS011;10067;53.092;8.800;2023-09-30T14:52:41;7.32;;;2.20;;